sensor_id;sensor_type;location;lat;lon;timestamp;P1;durP1;ratioP1;P2;durP2;ratioP2
43319;SDS011;28914;48.722;9.332;2022-12-18T00:05:02;53.20;;;33.23;;
43319;SDS011;28914;48.722;9.332;2022-12-18T00:10:21;53.27;;;32.27;;
43319;SDS011;28914;48.722;9.332;2022-12-18T00:15:40;57.07;;;33.70;;
43319;SDS011;28914;48.722;9.332;2022-12-18T00:21:00;65.10;;;37.57;;
43319;SDS011;28914;48.722;9.332;2022-12-18T00:26:22;55.07;;;36.33;;
43319;SDS011;28914;48.722;9.332;2022-12-18T00:31:43;61.27;;;35.57;;
43319;SDS011;28914;48.722;9.332;2022-12-18T00:37:02;52.20;;;33.70;;
43319;SDS011;28914;48.722;9.332;2022-12-18T00:42:21;58.37;;;34.17;;
43319;SDS011;28914;48.722;9.332;2022-12-18T00:47:59;54.03;;;33.30;;
43319;SDS011;28914;48.722;9.332;2022-12-18T00:53:19;52.97;;;31.90;;
43319;SDS011;28914;48.722;9.332;2022-12-18T00:58:38;60.73;;;36.63;;
43319;SDS011;28914;48.722;9.332;2022-12-18T01:03:59;51.10;;;32.47;;
43319;SDS011;28914;48.722;9.332;2022-12-18T01:09:19;54.90;;;31.60;;
43319;SDS011;28914;48.722;9.332;2022-12-18T01:14:38;54.93;;;31.70;;
43319;SDS011;28914;48.722;9.332;2022-12-18T01:19:57;49.53;;;30.33;;
43319;SDS011;28914;48.722;9.332;2022-12-18T01:25:17;51.47;;;32.53;;
43319;SDS011;28914;48.722;9.332;2022-12-18T01:30:36;52.83;;;33.00;;
43319;SDS011;28914;48.722;9.332;2022-12-18T01:35:56;42.70;;;27.10;;
43319;SDS011;28914;48.722;9.332;2022-12-18T01:41:16;46.70;;;29.50;;
43319;SDS011;28914;48.722;9.332;2022-12-18T01:46:37;49.07;;;29.17;;
43319;SDS011;28914;48.722;9.332;2022-12-18T01:51:56;43.27;;;27.17;;
43319;SDS011;28914;48.722;9.332;2022-12-18T01:57:15;43.93;;;27.00;;
43319;SDS011;28914;48.722;9.332;2022-12-18T02:02:35;47.60;;;31.70;;
43319;SDS011;28914;48.722;9.332;2022-12-18T02:13:56;40.83;;;28.10;;
43319;SDS011;28914;48.722;9.332;2022-12-18T02:25:32;39.23;;;28.40;;
43319;SDS011;28914;48.722;9.332;2022-12-18T02:31:14;42.00;;;28.60;;
43319;SDS011;28914;48.722;9.332;2022-12-18T02:36:40;49.00;;;31.37;;
43319;SDS011;28914;48.722;9.332;2022-12-18T02:42:02;41.00;;;27.30;;
43319;SDS011;28914;48.722;9.332;2022-12-18T02:47:29;45.73;;;26.30;;
43319;SDS011;28914;48.722;9.332;2022-12-18T02:58:59;46.27;;;25.83;;
43319;SDS011;28914;48.722;9.332;2022-12-18T03:04:23;42.67;;;27.67;;
43319;SDS011;28914;48.722;9.332;2022-12-18T03:09:49;41.17;;;24.97;;
43319;SDS011;28914;48.722;9.332;2022-12-18T03:15:15;39.27;;;23.90;;
43319;SDS011;28914;48.722;9.332;2022-12-18T03:20:38;46.77;;;25.60;;
43319;SDS011;28914;48.722;9.332;2022-12-18T03:26:01;40.83;;;24.63;;
43319;SDS011;28914;48.722;9.332;2022-12-18T03:31:24;44.00;;;26.00;;
43319;SDS011;28914;48.722;9.332;2022-12-18T03:36:46;38.17;;;25.13;;
43319;SDS011;28914;48.722;9.332;2022-12-18T03:42:10;34.03;;;22.80;;
43319;SDS011;28914;48.722;9.332;2022-12-18T03:47:45;38.97;;;24.33;;
43319;SDS011;28914;48.722;9.332;2022-12-18T03:58:54;35.87;;;22.50;;
43319;SDS011;28914;48.722;9.332;2022-12-18T04:04:15;37.70;;;24.97;;
43319;SDS011;28914;48.722;9.332;2022-12-18T04:09:36;41.70;;;28.60;;
43319;SDS011;28914;48.722;9.332;2022-12-18T04:14:56;38.00;;;23.73;;
43319;SDS011;28914;48.722;9.332;2022-12-18T04:20:16;35.90;;;24.07;;
43319;SDS011;28914;48.722;9.332;2022-12-18T04:25:36;39.70;;;26.33;;
43319;SDS011;28914;48.722;9.332;2022-12-18T04:30:55;37.70;;;23.93;;
43319;SDS011;28914;48.722;9.332;2022-12-18T04:36:14;34.13;;;21.17;;
43319;SDS011;28914;48.722;9.332;2022-12-18T04:41:34;34.37;;;21.77;;
43319;SDS011;28914;48.722;9.332;2022-12-18T04:46:53;35.13;;;22.23;;
43319;SDS011;28914;48.722;9.332;2022-12-18T04:52:12;31.73;;;18.70;;
43319;SDS011;28914;48.722;9.332;2022-12-18T04:57:31;35.07;;;22.70;;
43319;SDS011;28914;48.722;9.332;2022-12-18T05:02:51;36.97;;;24.33;;
43319;SDS011;28914;48.722;9.332;2022-12-18T05:08:10;33.20;;;21.57;;
43319;SDS011;28914;48.722;9.332;2022-12-18T05:13:30;35.27;;;22.10;;
43319;SDS011;28914;48.722;9.332;2022-12-18T05:18:49;31.23;;;21.70;;
43319;SDS011;28914;48.722;9.332;2022-12-18T05:24:09;33.80;;;22.80;;
43319;SDS011;28914;48.722;9.332;2022-12-18T05:29:28;34.57;;;20.90;;
43319;SDS011;28914;48.722;9.332;2022-12-18T05:34:47;30.03;;;20.63;;
43319;SDS011;28914;48.722;9.332;2022-12-18T05:40:06;38.17;;;22.10;;
43319;SDS011;28914;48.722;9.332;2022-12-18T05:45:26;36.90;;;22.40;;
43319;SDS011;28914;48.722;9.332;2022-12-18T05:50:46;28.70;;;22.70;;
43319;SDS011;28914;48.722;9.332;2022-12-18T05:56:08;32.77;;;23.47;;
43319;SDS011;28914;48.722;9.332;2022-12-18T06:01:28;32.10;;;22.20;;
43319;SDS011;28914;48.722;9.332;2022-12-18T06:06:48;34.63;;;24.83;;
43319;SDS011;28914;48.722;9.332;2022-12-18T06:12:07;37.73;;;24.37;;
43319;SDS011;28914;48.722;9.332;2022-12-18T06:17:29;29.63;;;23.90;;
43319;SDS011;28914;48.722;9.332;2022-12-18T06:22:49;28.77;;;21.43;;
43319;SDS011;28914;48.722;9.332;2022-12-18T06:28:08;28.30;;;20.30;;
43319;SDS011;28914;48.722;9.332;2022-12-18T06:33:27;39.07;;;24.80;;
43319;SDS011;28914;48.722;9.332;2022-12-18T06:38:47;31.80;;;22.20;;
43319;SDS011;28914;48.722;9.332;2022-12-18T06:44:06;30.83;;;21.50;;
43319;SDS011;28914;48.722;9.332;2022-12-18T06:49:25;31.13;;;21.23;;
43319;SDS011;28914;48.722;9.332;2022-12-18T06:54:44;31.93;;;22.00;;
43319;SDS011;28914;48.722;9.332;2022-12-18T07:00:04;31.93;;;21.97;;
43319;SDS011;28914;48.722;9.332;2022-12-18T07:05:25;32.87;;;25.97;;
43319;SDS011;28914;48.722;9.332;2022-12-18T07:10:44;37.97;;;27.60;;
43319;SDS011;28914;48.722;9.332;2022-12-18T07:16:04;36.03;;;25.60;;
43319;SDS011;28914;48.722;9.332;2022-12-18T07:21:24;35.70;;;24.93;;
43319;SDS011;28914;48.722;9.332;2022-12-18T07:26:47;41.83;;;27.27;;
43319;SDS011;28914;48.722;9.332;2022-12-18T07:32:06;36.17;;;24.20;;
43319;SDS011;28914;48.722;9.332;2022-12-18T07:37:26;32.67;;;22.37;;
43319;SDS011;28914;48.722;9.332;2022-12-18T07:42:45;47.37;;;32.70;;
43319;SDS011;28914;48.722;9.332;2022-12-18T07:48:04;49.00;;;29.13;;
43319;SDS011;28914;48.722;9.332;2022-12-18T07:53:24;46.00;;;32.23;;
43319;SDS011;28914;48.722;9.332;2022-12-18T07:58:43;39.80;;;26.73;;
43319;SDS011;28914;48.722;9.332;2022-12-18T08:04:03;34.80;;;26.60;;
43319;SDS011;28914;48.722;9.332;2022-12-18T08:09:22;33.97;;;22.03;;
43319;SDS011;28914;48.722;9.332;2022-12-18T08:14:41;42.47;;;25.60;;
43319;SDS011;28914;48.722;9.332;2022-12-18T08:20:00;39.83;;;30.27;;
43319;SDS011;28914;48.722;9.332;2022-12-18T08:25:20;42.97;;;32.07;;
43319;SDS011;28914;48.722;9.332;2022-12-18T08:30:39;43.67;;;25.73;;
43319;SDS011;28914;48.722;9.332;2022-12-18T08:35:59;38.97;;;26.30;;
43319;SDS011;28914;48.722;9.332;2022-12-18T08:41:18;41.27;;;27.00;;
43319;SDS011;28914;48.722;9.332;2022-12-18T08:46:38;42.83;;;28.40;;
43319;SDS011;28914;48.722;9.332;2022-12-18T08:52:00;47.80;;;29.40;;
43319;SDS011;28914;48.722;9.332;2022-12-18T08:57:21;43.80;;;30.90;;
43319;SDS011;28914;48.722;9.332;2022-12-18T09:02:40;45.63;;;29.57;;
43319;SDS011;28914;48.722;9.332;2022-12-18T09:07:59;38.20;;;27.70;;
43319;SDS011;28914;48.722;9.332;2022-12-18T09:13:18;41.73;;;26.97;;
43319;SDS011;28914;48.722;9.332;2022-12-18T09:18:38;43.13;;;26.57;;
43319;SDS011;28914;48.722;9.332;2022-12-18T09:23:57;37.13;;;25.47;;
43319;SDS011;28914;48.722;9.332;2022-12-18T09:29:16;42.43;;;29.87;;
43319;SDS011;28914;48.722;9.332;2022-12-18T09:34:35;107.13;;;60.10;;
43319;SDS011;28914;48.722;9.332;2022-12-18T09:39:54;40.17;;;27.93;;
43319;SDS011;28914;48.722;9.332;2022-12-18T09:45:14;45.47;;;28.90;;
43319;SDS011;28914;48.722;9.332;2022-12-18T09:50:35;40.10;;;28.23;;
43319;SDS011;28914;48.722;9.332;2022-12-18T09:55:58;43.73;;;29.03;;
43319;SDS011;28914;48.722;9.332;2022-12-18T10:01:21;42.03;;;29.83;;
43319;SDS011;28914;48.722;9.332;2022-12-18T10:06:52;47.70;;;30.90;;
43319;SDS011;28914;48.722;9.332;2022-12-18T10:17:51;45.57;;;29.67;;
43319;SDS011;28914;48.722;9.332;2022-12-18T10:28:51;44.50;;;32.20;;
43319;SDS011;28914;48.722;9.332;2022-12-18T10:34:12;37.60;;;27.00;;
43319;SDS011;28914;48.722;9.332;2022-12-18T10:39:33;40.90;;;30.40;;
43319;SDS011;28914;48.722;9.332;2022-12-18T10:45:00;44.20;;;31.53;;
43319;SDS011;28914;48.722;9.332;2022-12-18T10:50:26;36.33;;;29.80;;
43319;SDS011;28914;48.722;9.332;2022-12-18T10:55:51;35.90;;;30.00;;
43319;SDS011;28914;48.722;9.332;2022-12-18T11:01:13;34.33;;;28.87;;
43319;SDS011;28914;48.722;9.332;2022-12-18T11:06:34;34.20;;;27.70;;
43319;SDS011;28914;48.722;9.332;2022-12-18T11:17:36;33.90;;;27.90;;
43319;SDS011;28914;48.722;9.332;2022-12-18T11:22:56;32.97;;;28.33;;
43319;SDS011;28914;48.722;9.332;2022-12-18T11:28:40;41.00;;;29.70;;
43319;SDS011;28914;48.722;9.332;2022-12-18T11:34:12;38.37;;;29.50;;
43319;SDS011;28914;48.722;9.332;2022-12-18T11:39:43;31.33;;;26.80;;
43319;SDS011;28914;48.722;9.332;2022-12-18T11:50:33;30.70;;;24.90;;
43319;SDS011;28914;48.722;9.332;2022-12-18T12:13:29;30.37;;;23.17;;
43319;SDS011;28914;48.722;9.332;2022-12-18T12:30:19;34.67;;;24.17;;
43319;SDS011;28914;48.722;9.332;2022-12-18T12:36:00;35.10;;;25.10;;
43319;SDS011;28914;48.722;9.332;2022-12-18T12:41:26;36.87;;;26.37;;
43319;SDS011;28914;48.722;9.332;2022-12-18T12:47:16;37.77;;;27.47;;
43319;SDS011;28914;48.722;9.332;2022-12-18T12:52:43;33.30;;;24.53;;
43319;SDS011;28914;48.722;9.332;2022-12-18T12:58:15;35.90;;;23.77;;
43319;SDS011;28914;48.722;9.332;2022-12-18T13:09:08;28.37;;;21.83;;
43319;SDS011;28914;48.722;9.332;2022-12-18T13:14:29;34.57;;;23.63;;
43319;SDS011;28914;48.722;9.332;2022-12-18T13:19:49;37.57;;;24.37;;
43319;SDS011;28914;48.722;9.332;2022-12-18T13:30:51;29.70;;;20.20;;
43319;SDS011;28914;48.722;9.332;2022-12-18T13:36:27;31.50;;;21.87;;
43319;SDS011;28914;48.722;9.332;2022-12-18T13:41:54;27.97;;;19.97;;
43319;SDS011;28914;48.722;9.332;2022-12-18T13:47:52;33.20;;;20.43;;
43319;SDS011;28914;48.722;9.332;2022-12-18T13:53:16;30.53;;;21.07;;
43319;SDS011;28914;48.722;9.332;2022-12-18T13:58:40;33.30;;;21.13;;
43319;SDS011;28914;48.722;9.332;2022-12-18T14:04:16;29.40;;;20.03;;
43319;SDS011;28914;48.722;9.332;2022-12-18T14:09:42;27.67;;;20.27;;
43319;SDS011;28914;48.722;9.332;2022-12-18T14:15:05;25.47;;;18.43;;
43319;SDS011;28914;48.722;9.332;2022-12-18T14:20:31;30.23;;;21.50;;
43319;SDS011;28914;48.722;9.332;2022-12-18T14:25:50;34.23;;;21.03;;
43319;SDS011;28914;48.722;9.332;2022-12-18T14:31:17;28.97;;;20.30;;
43319;SDS011;28914;48.722;9.332;2022-12-18T14:36:38;28.03;;;20.77;;
43319;SDS011;28914;48.722;9.332;2022-12-18T14:41:58;32.87;;;22.33;;
43319;SDS011;28914;48.722;9.332;2022-12-18T14:47:18;32.90;;;22.70;;
43319;SDS011;28914;48.722;9.332;2022-12-18T14:52:37;29.60;;;20.27;;
43319;SDS011;28914;48.722;9.332;2022-12-18T14:57:56;31.13;;;21.03;;
43319;SDS011;28914;48.722;9.332;2022-12-18T15:03:20;28.80;;;19.87;;
43319;SDS011;28914;48.722;9.332;2022-12-18T15:08:39;27.93;;;18.67;;
43319;SDS011;28914;48.722;9.332;2022-12-18T15:13:58;28.53;;;20.60;;
43319;SDS011;28914;48.722;9.332;2022-12-18T15:19:20;32.80;;;22.40;;
43319;SDS011;28914;48.722;9.332;2022-12-18T15:24:50;34.63;;;24.60;;
43319;SDS011;28914;48.722;9.332;2022-12-18T15:35:33;29.87;;;21.10;;
43319;SDS011;28914;48.722;9.332;2022-12-18T15:40:53;35.13;;;21.67;;
43319;SDS011;28914;48.722;9.332;2022-12-18T15:46:13;35.50;;;24.97;;
43319;SDS011;28914;48.722;9.332;2022-12-18T15:51:34;32.63;;;24.43;;
43319;SDS011;28914;48.722;9.332;2022-12-18T15:56:55;37.93;;;26.97;;
43319;SDS011;28914;48.722;9.332;2022-12-18T16:02:47;38.27;;;27.60;;
43319;SDS011;28914;48.722;9.332;2022-12-18T16:08:06;36.70;;;24.80;;
43319;SDS011;28914;48.722;9.332;2022-12-18T16:13:25;34.20;;;23.90;;
43319;SDS011;28914;48.722;9.332;2022-12-18T16:18:46;32.87;;;25.30;;
43319;SDS011;28914;48.722;9.332;2022-12-18T16:24:05;42.47;;;31.97;;
43319;SDS011;28914;48.722;9.332;2022-12-18T16:29:28;39.70;;;30.10;;
43319;SDS011;28914;48.722;9.332;2022-12-18T16:34:48;41.07;;;28.70;;
43319;SDS011;28914;48.722;9.332;2022-12-18T16:40:09;46.87;;;29.67;;
43319;SDS011;28914;48.722;9.332;2022-12-18T16:45:30;40.93;;;30.00;;
43319;SDS011;28914;48.722;9.332;2022-12-18T16:50:53;39.47;;;25.03;;
43319;SDS011;28914;48.722;9.332;2022-12-18T16:56:20;38.20;;;27.10;;
43319;SDS011;28914;48.722;9.332;2022-12-18T17:01:39;40.23;;;27.60;;
43319;SDS011;28914;48.722;9.332;2022-12-18T17:06:59;35.73;;;27.90;;
43319;SDS011;28914;48.722;9.332;2022-12-18T17:12:19;39.93;;;26.40;;
43319;SDS011;28914;48.722;9.332;2022-12-18T17:17:38;36.90;;;26.37;;
43319;SDS011;28914;48.722;9.332;2022-12-18T17:22:57;40.43;;;27.00;;
43319;SDS011;28914;48.722;9.332;2022-12-18T17:28:17;34.70;;;25.60;;
43319;SDS011;28914;48.722;9.332;2022-12-18T17:33:36;31.70;;;21.70;;
43319;SDS011;28914;48.722;9.332;2022-12-18T17:38:55;28.90;;;21.77;;
43319;SDS011;28914;48.722;9.332;2022-12-18T17:44:16;26.60;;;19.10;;
43319;SDS011;28914;48.722;9.332;2022-12-18T17:49:36;27.40;;;19.30;;
43319;SDS011;28914;48.722;9.332;2022-12-18T17:54:56;24.30;;;17.63;;
43319;SDS011;28914;48.722;9.332;2022-12-18T18:00:15;31.07;;;18.33;;
43319;SDS011;28914;48.722;9.332;2022-12-18T18:05:35;48.73;;;29.50;;
43319;SDS011;28914;48.722;9.332;2022-12-18T18:10:54;36.40;;;25.93;;
43319;SDS011;28914;48.722;9.332;2022-12-18T18:16:34;27.00;;;19.30;;
43319;SDS011;28914;48.722;9.332;2022-12-18T18:21:56;32.73;;;22.03;;
43319;SDS011;28914;48.722;9.332;2022-12-18T18:27:15;33.27;;;21.80;;
43319;SDS011;28914;48.722;9.332;2022-12-18T18:32:34;29.13;;;20.97;;
43319;SDS011;28914;48.722;9.332;2022-12-18T18:37:57;35.03;;;25.67;;
43319;SDS011;28914;48.722;9.332;2022-12-18T18:43:16;29.07;;;22.50;;
43319;SDS011;28914;48.722;9.332;2022-12-18T18:48:35;31.67;;;22.83;;
43319;SDS011;28914;48.722;9.332;2022-12-18T18:53:55;40.73;;;28.37;;
43319;SDS011;28914;48.722;9.332;2022-12-18T18:59:14;39.63;;;26.70;;
43319;SDS011;28914;48.722;9.332;2022-12-18T19:04:33;42.47;;;28.10;;
43319;SDS011;28914;48.722;9.332;2022-12-18T19:09:54;32.63;;;22.93;;
43319;SDS011;28914;48.722;9.332;2022-12-18T19:15:13;36.70;;;26.00;;
43319;SDS011;28914;48.722;9.332;2022-12-18T19:20:32;32.93;;;23.17;;
43319;SDS011;28914;48.722;9.332;2022-12-18T19:25:51;30.57;;;21.60;;
43319;SDS011;28914;48.722;9.332;2022-12-18T19:31:11;44.53;;;31.53;;
43319;SDS011;28914;48.722;9.332;2022-12-18T19:36:33;44.80;;;32.27;;
43319;SDS011;28914;48.722;9.332;2022-12-18T19:41:54;43.77;;;30.00;;
43319;SDS011;28914;48.722;9.332;2022-12-18T19:47:14;38.87;;;27.30;;
43319;SDS011;28914;48.722;9.332;2022-12-18T19:52:33;47.20;;;33.63;;
43319;SDS011;28914;48.722;9.332;2022-12-18T19:57:52;35.83;;;27.80;;
43319;SDS011;28914;48.722;9.332;2022-12-18T20:03:11;34.17;;;27.20;;
43319;SDS011;28914;48.722;9.332;2022-12-18T20:08:30;41.00;;;29.30;;
43319;SDS011;28914;48.722;9.332;2022-12-18T20:13:53;51.00;;;33.83;;
43319;SDS011;28914;48.722;9.332;2022-12-18T20:19:12;48.50;;;30.07;;
43319;SDS011;28914;48.722;9.332;2022-12-18T20:24:32;42.47;;;29.80;;
43319;SDS011;28914;48.722;9.332;2022-12-18T20:29:51;46.30;;;28.03;;
43319;SDS011;28914;48.722;9.332;2022-12-18T20:35:11;51.67;;;34.03;;
43319;SDS011;28914;48.722;9.332;2022-12-18T20:40:30;43.00;;;28.80;;
43319;SDS011;28914;48.722;9.332;2022-12-18T20:45:49;35.40;;;25.77;;
43319;SDS011;28914;48.722;9.332;2022-12-18T20:51:09;42.40;;;29.13;;
43319;SDS011;28914;48.722;9.332;2022-12-18T20:56:30;58.60;;;41.67;;
43319;SDS011;28914;48.722;9.332;2022-12-18T21:01:50;35.83;;;26.47;;
43319;SDS011;28914;48.722;9.332;2022-12-18T21:07:10;33.10;;;22.13;;
43319;SDS011;28914;48.722;9.332;2022-12-18T21:12:29;34.47;;;24.60;;
43319;SDS011;28914;48.722;9.332;2022-12-18T21:17:48;34.93;;;24.93;;
43319;SDS011;28914;48.722;9.332;2022-12-18T21:23:09;33.27;;;22.63;;
43319;SDS011;28914;48.722;9.332;2022-12-18T21:28:28;28.77;;;20.60;;
43319;SDS011;28914;48.722;9.332;2022-12-18T21:33:47;37.93;;;24.87;;
43319;SDS011;28914;48.722;9.332;2022-12-18T21:39:07;38.97;;;23.57;;
43319;SDS011;28914;48.722;9.332;2022-12-18T21:44:26;30.97;;;21.27;;
43319;SDS011;28914;48.722;9.332;2022-12-18T21:49:46;38.10;;;25.30;;
43319;SDS011;28914;48.722;9.332;2022-12-18T21:55:05;38.13;;;25.77;;
43319;SDS011;28914;48.722;9.332;2022-12-18T22:00:25;32.83;;;23.57;;
43319;SDS011;28914;48.722;9.332;2022-12-18T22:05:44;40.27;;;29.80;;
43319;SDS011;28914;48.722;9.332;2022-12-18T22:11:03;37.57;;;24.73;;
43319;SDS011;28914;48.722;9.332;2022-12-18T22:16:22;33.50;;;23.13;;
43319;SDS011;28914;48.722;9.332;2022-12-18T22:21:42;30.10;;;19.57;;
43319;SDS011;28914;48.722;9.332;2022-12-18T22:27:07;37.40;;;25.50;;
43319;SDS011;28914;48.722;9.332;2022-12-18T22:32:27;34.00;;;23.63;;
43319;SDS011;28914;48.722;9.332;2022-12-18T22:37:46;35.63;;;24.80;;
43319;SDS011;28914;48.722;9.332;2022-12-18T22:43:06;32.80;;;20.50;;
43319;SDS011;28914;48.722;9.332;2022-12-18T22:48:25;35.30;;;23.87;;
43319;SDS011;28914;48.722;9.332;2022-12-18T22:53:44;37.70;;;26.00;;
43319;SDS011;28914;48.722;9.332;2022-12-18T22:59:04;38.77;;;26.80;;
43319;SDS011;28914;48.722;9.332;2022-12-18T23:04:25;34.07;;;23.90;;
43319;SDS011;28914;48.722;9.332;2022-12-18T23:09:46;36.00;;;23.50;;
43319;SDS011;28914;48.722;9.332;2022-12-18T23:15:07;38.70;;;26.10;;
43319;SDS011;28914;48.722;9.332;2022-12-18T23:20:26;36.07;;;25.97;;
43319;SDS011;28914;48.722;9.332;2022-12-18T23:25:45;36.80;;;24.57;;
43319;SDS011;28914;48.722;9.332;2022-12-18T23:31:11;43.80;;;27.87;;
43319;SDS011;28914;48.722;9.332;2022-12-18T23:36:32;43.27;;;26.20;;
43319;SDS011;28914;48.722;9.332;2022-12-18T23:41:52;39.20;;;26.87;;
43319;SDS011;28914;48.722;9.332;2022-12-18T23:47:11;38.43;;;26.70;;
43319;SDS011;28914;48.722;9.332;2022-12-18T23:52:30;37.63;;;25.83;;
43319;SDS011;28914;48.722;9.332;2022-12-18T23:57:49;37.60;;;22.73;;
